createdAt,value
2019-05-26T00:00:35.557Z,13.17
2019-05-26T00:03:04.680Z,13.43
2019-05-26T00:05:33.936Z,12.63
2019-05-26T00:08:02.779Z,12.37
2019-05-26T00:10:31.718Z,13.67
2019-05-26T00:13:00.632Z,13.47
2019-05-26T00:15:29.591Z,13.07
2019-05-26T00:17:58.576Z,23.33
2019-05-26T00:20:27.489Z,18.03
2019-05-26T00:22:56.325Z,14.73
2019-05-26T00:25:24.893Z,13.93
2019-05-26T00:27:53.735Z,13.33
2019-05-26T00:30:22.714Z,14.70
2019-05-26T00:32:51.553Z,16.23
2019-05-26T00:35:20.440Z,12.80
2019-05-26T00:37:50.641Z,13.17
2019-05-26T00:40:20.192Z,12.17
2019-05-26T00:42:49.131Z,12.03
2019-05-26T00:45:18.274Z,15.93
2019-05-26T00:47:47.202Z,11.33
2019-05-26T00:50:16.392Z,12.47
2019-05-26T00:52:45.257Z,14.30
2019-05-26T00:55:15.016Z,19.03
2019-05-26T00:57:43.974Z,13.53
2019-05-26T01:00:13.200Z,14.63
2019-05-26T01:02:42.032Z,91.07
2019-05-26T01:05:11.324Z,16.27
2019-05-26T01:07:40.211Z,28.23
2019-05-26T01:10:09.930Z,94.60
2019-05-26T01:12:39.000Z,44.73
2019-05-26T01:15:08.830Z,26.60
2019-05-26T01:17:37.796Z,25.70
2019-05-26T01:20:06.936Z,19.93
2019-05-26T01:22:35.482Z,18.83
2019-05-26T01:25:08.582Z,18.47
2019-05-26T01:27:37.656Z,122.10
2019-05-26T01:30:07.994Z,21.47
2019-05-26T01:32:37.859Z,57.70
2019-05-26T01:35:08.098Z,48.27
2019-05-26T01:37:39.587Z,24.20
2019-05-26T01:40:08.599Z,16.20
2019-05-26T01:42:37.584Z,14.87
2019-05-26T01:45:08.091Z,42.40
2019-05-26T01:47:36.989Z,32.93
2019-05-26T01:50:07.698Z,54.17
2019-05-26T01:52:36.595Z,66.27
2019-05-26T01:55:07.001Z,41.60
2019-05-26T01:57:35.871Z,31.30
2019-05-26T02:00:06.139Z,40.47
2019-05-26T02:02:34.950Z,18.13
2019-05-26T02:05:04.317Z,57.50
2019-05-26T02:07:32.998Z,104.17
2019-05-26T02:10:01.843Z,111.53
2019-05-26T02:12:30.749Z,55.60
2019-05-26T02:14:59.250Z,43.47
2019-05-26T02:17:28.057Z,29.53
2019-05-26T02:19:56.844Z,46.07
2019-05-26T02:22:25.375Z,34.03
2019-05-26T02:24:53.943Z,26.07
2019-05-26T02:27:22.831Z,13.10
2019-05-26T02:29:51.419Z,15.83
2019-05-26T02:32:20.240Z,11.33
2019-05-26T02:34:50.001Z,33.80
2019-05-26T02:37:18.847Z,27.77
2019-05-26T02:39:47.352Z,34.37
2019-05-26T02:42:16.189Z,21.07
2019-05-26T02:44:45.068Z,34.20
2019-05-26T02:47:13.625Z,12.53
2019-05-26T02:49:42.522Z,13.90
2019-05-26T02:52:11.425Z,11.20
2019-05-26T02:54:40.308Z,10.80
2019-05-26T02:57:09.296Z,9.77
2019-05-26T02:59:38.143Z,8.03
2019-05-26T03:02:07.117Z,9.57
2019-05-26T03:04:36.140Z,9.23
2019-05-26T03:07:05.471Z,9.97
2019-05-26T03:09:36.832Z,12.27
2019-05-26T03:12:06.002Z,20.63
2019-05-26T03:14:36.921Z,12.77
2019-05-26T03:17:05.562Z,9.37
2019-05-26T03:19:35.620Z,20.33
2019-05-26T03:22:04.962Z,12.90
2019-05-26T03:24:33.842Z,9.20
2019-05-26T03:27:02.519Z,14.23
2019-05-26T03:29:31.316Z,16.43
2019-05-26T03:32:00.215Z,12.30
2019-05-26T03:34:28.827Z,19.10
2019-05-26T03:36:57.873Z,8.10
2019-05-26T03:39:43.784Z,12.00
2019-05-26T03:41:57.298Z,14.77
2019-05-26T03:44:25.814Z,11.50
2019-05-26T03:46:54.324Z,20.87
2019-05-26T03:49:22.927Z,33.93
2019-05-26T03:51:51.837Z,34.43
2019-05-26T03:54:20.732Z,17.90
2019-05-26T03:56:49.761Z,14.33
2019-05-26T03:59:18.686Z,6.73
2019-05-26T04:01:47.536Z,9.40
2019-05-26T04:04:16.501Z,9.07
2019-05-26T04:06:45.047Z,9.63
2019-05-26T04:09:13.834Z,11.43
2019-05-26T04:11:42.433Z,62.70
2019-05-26T04:14:11.274Z,51.00
2019-05-26T04:16:39.858Z,61.70
2019-05-26T04:19:08.756Z,25.60
2019-05-26T04:21:37.573Z,19.83
2019-05-26T04:24:06.520Z,35.43
2019-05-26T04:26:35.439Z,66.77
2019-05-26T04:29:04.361Z,32.43
2019-05-26T04:31:33.229Z,35.10
2019-05-26T04:34:02.080Z,66.67
2019-05-26T04:36:31.031Z,16.57
2019-05-26T04:39:00.134Z,10.83
2019-05-26T04:41:29.133Z,46.37
2019-05-26T04:43:57.942Z,11.90
2019-05-26T04:46:26.810Z,9.67
2019-05-26T04:48:55.756Z,8.40
2019-05-26T04:51:24.646Z,8.90
2019-05-26T04:53:53.532Z,9.50
2019-05-26T04:56:22.474Z,10.50
2019-05-26T04:58:51.415Z,9.40
2019-05-26T05:01:20.216Z,13.83
2019-05-26T05:03:49.188Z,10.13
2019-05-26T05:06:18.031Z,12.57
2019-05-26T05:08:46.754Z,16.40
2019-05-26T05:11:15.472Z,10.67
2019-05-26T05:13:44.159Z,10.00
2019-05-26T05:16:12.584Z,8.83
2019-05-26T05:18:41.232Z,13.27
2019-05-26T05:21:11.375Z,8.10
2019-05-26T05:23:40.341Z,11.17
2019-05-26T05:26:09.093Z,8.63
2019-05-26T05:28:38.390Z,9.45
2019-05-26T05:31:19.590Z,9.95
2019-05-26T05:33:48.119Z,10.05
2019-05-26T05:39:57.415Z,12.98
2019-05-26T05:42:29.430Z,9.80
2019-05-26T05:45:09.755Z,9.95
2019-05-26T05:47:38.649Z,9.75
2019-05-26T05:50:11.228Z,9.98
2019-05-26T05:52:39.911Z,10.85
2019-05-26T05:55:15.936Z,10.38
2019-05-26T05:57:45.154Z,10.43
2019-05-26T06:00:18.281Z,13.15
2019-05-26T06:02:47.154Z,9.68
2019-05-26T06:05:16.765Z,10.65
2019-05-26T06:07:45.691Z,13.45
2019-05-26T07:55:05.818Z,14.98
2019-05-26T07:57:09.112Z,13.20
2019-05-26T07:59:22.939Z,11.25
2019-05-26T08:01:49.332Z,10.70
2019-05-26T08:04:26.369Z,13.20
2019-05-26T08:07:07.247Z,14.00
2019-05-26T08:09:27.389Z,16.35
2019-05-26T08:12:01.043Z,12.75
2019-05-26T08:14:33.711Z,13.30
2019-05-26T08:17:05.137Z,11.35
2019-05-26T08:19:38.125Z,14.40
2019-05-26T08:22:20.616Z,12.68
2019-05-26T08:24:49.533Z,16.70
2019-05-26T08:27:18.401Z,14.07
2019-05-26T08:56:04.797Z,13.53
2019-05-26T09:56:41.403Z,6.30
2019-05-26T09:59:10.103Z,9.20
2019-05-26T10:01:38.795Z,10.45
2019-05-26T10:04:07.581Z,8.30
2019-05-26T10:06:36.003Z,6.62
2019-05-26T10:09:07.438Z,10.10
2019-05-26T10:11:36.167Z,20.48
2019-05-26T10:14:05.169Z,13.40
2019-05-26T10:16:33.595Z,8.58
2019-05-26T10:19:02.298Z,9.98
2019-05-26T10:21:30.973Z,8.83
2019-05-26T10:23:59.667Z,9.30
2019-05-26T10:26:28.454Z,9.23
2019-05-26T10:29:00.375Z,8.05
2019-05-26T10:31:27.576Z,6.95
2019-05-26T10:33:56.297Z,7.12
2019-05-26T10:36:24.990Z,9.20
2019-05-26T10:38:54.300Z,7.75
2019-05-26T10:41:23.022Z,9.10
2019-05-26T10:43:51.717Z,12.07
2019-05-26T10:46:20.408Z,8.93
2019-05-26T10:48:49.114Z,8.58
2019-05-26T10:51:17.811Z,9.38
2019-05-26T10:53:46.494Z,6.92
2019-05-26T10:56:15.212Z,10.60
2019-05-26T10:58:44.859Z,10.85
2019-05-26T11:01:13.284Z,8.60
2019-05-26T11:03:42.051Z,11.48
2019-05-26T11:06:10.745Z,13.18
2019-05-26T11:08:39.427Z,8.98
2019-05-26T11:11:08.157Z,7.78
2019-05-26T11:13:36.862Z,9.28
2019-05-26T11:16:05.707Z,11.12
2019-05-26T11:18:34.412Z,8.45
2019-05-26T11:21:03.235Z,9.03
2019-05-26T11:23:31.959Z,7.20
2019-05-26T11:26:00.744Z,10.00
2019-05-26T11:28:29.432Z,9.15
2019-05-26T11:30:58.127Z,8.68
2019-05-26T11:33:26.856Z,5.62
2019-05-26T11:35:55.358Z,7.92
2019-05-26T11:38:24.038Z,7.28
2019-05-26T11:40:52.491Z,6.33
2019-05-26T11:43:21.255Z,11.28
2019-05-26T11:45:49.969Z,6.50
2019-05-26T11:48:18.684Z,6.67
2019-05-26T11:50:47.380Z,9.38
2019-05-26T11:53:15.794Z,6.12
2019-05-26T11:55:44.519Z,6.40
2019-05-26T11:58:13.207Z,8.68
2019-05-26T12:00:42.002Z,12.07
2019-05-26T12:03:10.724Z,8.55
2019-05-26T12:05:40.951Z,11.48
2019-05-26T12:08:09.677Z,7.03
2019-05-26T12:10:38.440Z,7.12
2019-05-26T12:13:06.856Z,7.55
2019-05-26T12:15:35.292Z,5.40
2019-05-26T12:18:04.111Z,7.65
2019-05-26T12:20:32.824Z,6.95
2019-05-26T12:23:01.509Z,6.47
2019-05-26T12:25:30.234Z,5.37
2019-05-26T12:27:58.940Z,5.85
2019-05-26T12:30:27.621Z,5.22
2019-05-26T12:32:56.054Z,8.90
2019-05-26T12:35:26.424Z,4.42
2019-05-26T12:37:55.203Z,10.23
2019-05-26T12:40:24.067Z,5.30
2019-05-26T12:42:52.497Z,7.87
2019-05-26T12:45:21.524Z,12.03
2019-05-26T12:47:49.974Z,8.20
2019-05-26T12:50:19.011Z,6.05
2019-05-26T12:52:47.698Z,4.42
2019-05-26T12:55:17.089Z,4.22
2019-05-26T12:57:45.509Z,7.15
2019-05-26T13:00:14.841Z,5.95
2019-05-26T13:02:43.677Z,4.45
2019-05-26T13:05:12.440Z,4.65
2019-05-26T13:07:41.131Z,6.55
2019-05-26T13:10:10.195Z,8.98
2019-05-26T13:12:38.685Z,7.03
2019-05-26T13:15:11.928Z,5.35
2019-05-26T13:17:40.638Z,6.42
2019-05-26T13:20:10.165Z,6.65
2019-05-26T13:22:40.515Z,14.40
2019-05-26T13:25:11.809Z,8.53
2019-05-26T13:27:40.583Z,10.13
2019-05-26T13:30:12.349Z,4.15
2019-05-26T13:32:41.133Z,3.65
2019-05-26T13:35:12.658Z,4.67
2019-05-26T13:37:41.440Z,6.67
2019-05-26T13:40:11.754Z,6.45
2019-05-26T13:42:40.476Z,6.05
2019-05-26T13:45:21.926Z,5.45
2019-05-26T13:47:41.132Z,3.62
2019-05-26T13:50:10.772Z,5.25
2019-05-26T13:52:39.236Z,3.75
2019-05-26T13:55:09.233Z,2.58
2019-05-26T13:57:37.965Z,3.65
2019-05-26T14:00:09.165Z,5.47
2019-05-26T14:02:37.962Z,6.30
2019-05-26T14:05:07.956Z,3.08
2019-05-26T14:07:36.760Z,3.83
2019-05-26T14:10:07.704Z,3.72
2019-05-26T14:12:36.123Z,4.87
2019-05-26T14:15:07.665Z,3.22
2019-05-26T14:17:38.411Z,3.55
2019-05-26T14:20:08.079Z,4.80
2019-05-26T14:22:36.781Z,3.30
2019-05-26T14:25:06.596Z,3.12
2019-05-26T14:27:35.281Z,2.87
2019-05-26T14:30:08.022Z,5.17
2019-05-26T14:32:36.710Z,4.60
2019-05-26T14:35:08.573Z,3.08
2019-05-26T14:37:37.276Z,2.42
2019-05-26T14:40:09.653Z,4.87
2019-05-26T14:42:38.420Z,2.50
2019-05-26T14:45:07.460Z,2.40
2019-05-26T14:47:36.159Z,2.58
2019-05-26T14:50:07.804Z,2.37
2019-05-26T14:52:36.549Z,4.37
2019-05-26T14:55:06.509Z,4.35
2019-05-26T14:57:34.938Z,7.20
2019-05-26T15:00:07.025Z,2.75
2019-05-26T15:02:35.848Z,5.45
2019-05-26T15:05:07.153Z,2.30
2019-05-26T15:07:36.409Z,7.72
2019-05-26T15:10:08.946Z,3.52
2019-05-26T15:12:37.450Z,6.67
2019-05-26T15:15:07.175Z,2.25
2019-05-26T15:17:35.961Z,4.22
2019-05-26T15:20:06.009Z,1.65
2019-05-26T15:22:34.798Z,2.92
2019-05-26T15:25:05.532Z,3.60
2019-05-26T15:27:34.226Z,2.80
2019-05-26T15:30:07.149Z,2.25
2019-05-26T15:32:36.271Z,6.58
2019-05-26T15:35:07.745Z,3.10
2019-05-26T15:37:36.571Z,2.92
2019-05-26T15:40:08.555Z,1.90
2019-05-26T15:42:37.253Z,4.85
2019-05-26T15:45:07.393Z,2.17
2019-05-26T15:47:36.105Z,3.40
2019-05-26T15:50:06.823Z,3.92
2019-05-26T15:52:35.513Z,14.35
2019-05-26T15:55:04.706Z,4.33
2019-05-26T15:57:33.401Z,2.65
2019-05-26T16:00:21.233Z,3.08
2019-05-26T16:02:49.840Z,3.15
2019-05-26T16:05:18.533Z,2.02
2019-05-26T16:07:47.591Z,2.35
2019-05-26T16:10:16.692Z,2.58
2019-05-26T16:12:45.439Z,2.40
2019-05-26T16:15:14.595Z,3.10
2019-05-26T16:17:43.152Z,2.67
2019-05-26T16:20:12.550Z,2.42
2019-05-26T16:31:48.799Z,8.45
2019-05-26T16:37:07.938Z,5.15
2019-05-26T16:39:41.885Z,4.72
2019-05-26T16:42:10.752Z,4.08
2019-05-26T16:44:39.924Z,3.42
2019-05-26T16:47:17.024Z,12.20
2019-05-26T16:49:43.570Z,6.00
2019-05-26T16:52:12.244Z,5.17
2019-05-26T16:54:44.892Z,2.67
2019-05-26T16:57:15.291Z,6.35
2019-05-26T17:30:00.424Z,6.15
2019-05-26T17:32:35.990Z,5.72
2019-05-26T17:35:07.842Z,5.42
2019-05-26T17:37:37.532Z,2.77
2019-05-26T17:40:08.927Z,4.45
2019-05-26T17:56:51.113Z,3.58
2019-05-26T17:59:19.917Z,4.25
2019-05-26T18:01:48.666Z,2.83
2019-05-26T18:04:17.389Z,3.37
2019-05-26T18:06:46.075Z,2.60
2019-05-26T18:09:14.486Z,2.42
2019-05-26T18:11:43.207Z,4.35
2019-05-26T18:14:11.906Z,3.08
2019-05-26T18:16:40.675Z,2.05
2019-05-26T18:19:09.436Z,3.58
2019-05-26T18:21:38.128Z,5.15
2019-05-26T18:24:06.627Z,4.58
2019-05-26T18:26:37.287Z,2.87
2019-05-26T18:29:05.835Z,3.87
2019-05-26T18:31:35.113Z,3.55
2019-05-26T18:34:03.629Z,3.45
2019-05-26T18:36:32.330Z,3.08
2019-05-26T18:39:01.048Z,2.98
2019-05-26T18:41:29.789Z,4.55
2019-05-26T18:43:58.200Z,2.50
2019-05-26T18:46:26.898Z,2.75
2019-05-26T18:48:55.617Z,2.75
2019-05-26T18:51:24.316Z,12.90
2019-05-26T18:53:52.740Z,4.50
2019-05-26T18:56:21.495Z,2.60
2019-05-26T18:58:50.249Z,3.05
2019-05-26T19:01:18.935Z,3.08
2019-05-26T19:03:47.459Z,3.67
2019-05-26T19:06:16.152Z,4.10
2019-05-26T19:08:44.580Z,4.40
2019-05-26T19:11:13.299Z,4.47
2019-05-26T19:13:41.728Z,4.20
2019-05-26T19:16:10.231Z,3.47
2019-05-26T19:18:38.748Z,3.60
2019-05-26T19:21:07.182Z,8.03
2019-05-26T19:23:35.924Z,5.15
2019-05-26T19:26:04.729Z,3.98
2019-05-26T19:29:20.841Z,23.03
2019-05-26T19:31:49.656Z,8.10
2019-05-26T19:40:30.376Z,4.63
2019-05-26T19:42:59.226Z,3.13
2019-05-26T19:45:28.063Z,5.60
2019-05-26T19:47:57.086Z,3.90
2019-05-26T19:50:25.936Z,3.43
2019-05-26T19:52:54.964Z,6.50
2019-05-26T19:55:25.452Z,5.90
2019-05-26T19:57:54.312Z,4.27
2019-05-26T20:00:23.968Z,3.93
2019-05-26T20:02:52.648Z,4.37
2019-05-26T20:05:21.652Z,6.47
2019-05-26T20:07:50.200Z,9.40
2019-05-26T20:10:19.565Z,6.53
2019-05-26T20:12:48.881Z,5.20
2019-05-26T20:15:17.547Z,5.27
2019-05-26T20:17:46.476Z,3.77
2019-05-26T20:20:15.605Z,9.23
2019-05-26T20:22:44.469Z,6.00
2019-05-26T20:25:13.563Z,3.10
2019-05-26T20:27:42.492Z,3.85
2019-05-26T20:30:13.052Z,4.53
2019-05-26T20:32:41.977Z,5.07
2019-05-26T20:35:11.405Z,3.37
2019-05-26T20:37:40.244Z,10.70
2019-05-26T20:40:09.361Z,5.60
2019-05-26T20:42:38.217Z,8.00
2019-05-26T20:45:08.244Z,4.80
2019-05-26T20:47:37.240Z,8.17
2019-05-26T20:50:08.578Z,3.90
2019-05-26T20:52:37.480Z,6.00
2019-05-26T20:55:08.615Z,4.53
2019-05-26T20:57:37.226Z,3.50
2019-05-26T21:00:08.547Z,6.57
2019-05-26T21:02:37.709Z,5.17
2019-05-26T21:05:07.553Z,5.03
2019-05-26T21:07:36.390Z,4.40
2019-05-26T21:10:06.695Z,5.73
2019-05-26T21:12:35.606Z,4.23
2019-05-26T21:15:06.465Z,4.33
2019-05-26T21:17:35.402Z,3.77
2019-05-26T21:20:07.216Z,8.00
2019-05-26T21:22:36.030Z,6.60
2019-05-26T21:25:05.670Z,5.33
2019-05-26T21:27:34.560Z,4.00
2019-05-26T21:30:04.613Z,7.23
2019-05-26T21:32:33.170Z,3.20
2019-05-26T21:35:01.991Z,6.50
2019-05-26T21:37:31.861Z,3.27
2019-05-26T21:40:00.664Z,4.13
2019-05-26T21:42:29.540Z,4.57
2019-05-26T21:44:58.422Z,3.93
2019-05-26T21:47:27.205Z,7.40
2019-05-26T21:49:56.094Z,6.63
2019-05-26T21:52:24.914Z,5.10
2019-05-26T21:54:53.831Z,4.93
2019-05-26T21:57:22.387Z,5.10
2019-05-26T21:59:50.975Z,6.83
2019-05-26T22:02:19.858Z,4.13
2019-05-26T22:04:48.431Z,4.10
2019-05-26T22:07:17.238Z,7.73
2019-05-26T22:09:46.078Z,4.87
2019-05-26T22:12:15.033Z,5.17
2019-05-26T22:14:43.862Z,4.10
2019-05-26T22:17:12.735Z,4.23
2019-05-26T22:19:41.657Z,8.03
2019-05-26T22:22:10.568Z,5.77
2019-05-26T22:24:39.368Z,9.03
2019-05-26T22:27:08.300Z,6.10
2019-05-26T22:29:37.135Z,4.13
2019-05-26T22:32:06.059Z,6.37
2019-05-26T22:34:34.895Z,6.93
2019-05-26T22:37:06.500Z,5.53
2019-05-26T22:39:35.430Z,4.40
2019-05-26T22:42:04.009Z,11.80
2019-05-26T22:44:32.842Z,7.20
2019-05-26T22:47:01.697Z,9.23
2019-05-26T22:49:30.546Z,4.90
2019-05-26T22:51:59.439Z,6.57
2019-05-26T22:54:28.303Z,5.77
2019-05-26T22:56:57.202Z,10.63
2019-05-26T22:59:26.097Z,6.03
2019-05-26T23:01:55.010Z,4.00
2019-05-26T23:04:23.901Z,3.77
2019-05-26T23:06:52.677Z,5.63
2019-05-26T23:09:21.527Z,7.83
2019-05-26T23:11:50.436Z,3.70
2019-05-26T23:14:19.317Z,5.80
2019-05-26T23:16:48.166Z,4.57
2019-05-26T23:19:19.773Z,6.60
2019-05-26T23:21:47.590Z,5.20
2019-05-26T23:24:16.442Z,4.77
2019-05-26T23:26:45.325Z,4.87
2019-05-26T23:29:14.115Z,4.60
2019-05-26T23:31:42.641Z,4.97
2019-05-26T23:34:11.532Z,4.40
2019-05-26T23:36:40.066Z,6.77
2019-05-26T23:39:08.748Z,7.30
2019-05-26T23:41:38.705Z,5.53
2019-05-26T23:44:07.546Z,5.00
2019-05-26T23:46:36.335Z,4.47
2019-05-26T23:49:05.143Z,15.13
2019-05-26T23:51:33.987Z,4.93
2019-05-26T23:54:02.870Z,4.43
2019-05-26T23:56:31.762Z,5.43
2019-05-26T23:59:00.605Z,4.83
